Easthampton, Massachusetts
Current Conditions -  °F | °C
As of 12:53 PM on Saturday 22 Nov 2014 (Local Time) from KBAF Reporting Station
Clear Clear  
Wind Chill: 34°   Ceiling: Unl
Heat Index: 40°   Visibility: 10mi
Dew Point: 10°   Wind: 9mph
Humidity: 29%   Direction: 180°S
Pressure: 30.22"   Gusts: NA
Location:  42.27°N, 72.67°W
Report Text: KBAF 221753Z 18008KT 10SM CLR 04/M12 A3022 RMK AO2 SLP240 T00441122 10044 21089 58048
Loading
Personal Weather Stations






























Interactive Weather Map New forecast layout! Learn more

10-Day Weather Forecast

Advertisements
Track Severe Weather on mobile